VISIB

Not for real navigation. The accuracy of this data is not assured See disclaimer for more information



ICAO NAME COUNTRY WIND Kt GUST Kt VIS m TEMP/DEW C BARO METAR
LTAL 1 0 100 3/3 29.97 LTAL 181550Z 24001KT 0100 R18/0100N FG VV000 03/03 Q1015
ZWWW Urum-Qi / Diwopu China 1 0 100 -2/-2 30.33 ZWWW 181700Z VRB01KT 0100 R25/0275N FZFG VV001 M02/M02 Q1027 BECMG TL1850 0200 FZFG
YAMB 0 0 200 14/14 29.97 YAMB 181700Z AUTO 00000KT 0200 // BKN001 OVC071 14/14 Q1015
KEUG MAHLON SWEET FIELD OR United States 3 0 200 1/1 30.30 KEUG 181654Z 28003KT 0.125SM R16R/0700V0800FT FG VV002 01/01 A3030 RMK AO2 TWR VIS 1/4 SLP264 T00060
LYUZ 4 0 200 2/2 29.97 LYUZ 181700Z 34004KT 310V020 0200 -DZ FG VV001 02/02 Q1015

Show more